Treloar, MO

11:11 AM CDT on March 27, 2015 (GMT -0500)
new haven | | Change Station
CLOSE
Current Station
Personal Weather Station
Location: New Haven, MO
Elevation: 659 ft
Nearby Weather Stations

Elev 659 ft 38.60 °N, 91.21 °W | Updated 30 seconds ago

Overcast
Overcast
35.8 °F
Feels Like 32 °F
N
4.0
Wind Variable Wind from NE
Gusts 11.0 mph

Today
High -- | Low -- °F
--% Chance of Precip.
Yesterday
High -- | Low -- °F
Precip. -- in
6:57 AM 7:23 PM
First Quarter, 53% visible
Pressure 30.20 in
Visibility 10.0 miles
Clouds Overcast 4500 ft
Windchill 32 °F
Dew Point 23 °F
Humidity 59%
Rainfall 0.00 in
Snow Depth Not available.
UV 2 out of 12
Pollen 9.10 out of 12
Air Quality Not available.
Flu Activity Not available.
METAR KFYG 271555Z AUTO 36009G15KT 10SM OVC045 02/M08 A3020 RMK AO2 LTG DSNT E AND SW

More Conditions Fewer Conditions

Pressure 30.20 in
Visibility 10.0 miles
Clouds Overcast 4500 ft
Windchill 32 °F
Dew Point 23 °F
Humidity 59%
Rainfall 0.00 in
Snow Depth Not available.
UV 2 out of 12
Pollen 9.10 out of 12
Air Quality Not available.
Flu Activity Not available.
METAR KFYG 271555Z AUTO 36009G15KT 10SM OVC045 02/M08 A3020 RMK AO2 LTG DSNT E AND SW

More Conditions Fewer Conditions

10-Day Weather Forecast

Almanac

Astronomy

Mar. 27, 2015 Rise Set
Actual Time
Civil Twilight
Nautical Twilight
Astronomical Twilight
Moon
Length of Visible Light
Length of Day
Tomorrow will be .
, % of the Moon is Illuminated

Today's Extremes

State Highs State Lows

Community

WunderPhotos

Upload Photos

1,808,766 photos uploaded!

WunderBlogs® & News

Nearby

Air Quality

  Air Quality AQ Index Pollutant
Not available.

Snow Depth

Station Depth Elevation

Earthquake Activity

City Distance Mag. Time & Date
Minimum magnitude displayed is 2.5.

Coastal Water Temperatures

Place Temperature

Stations

Nearby Weather Stations

Station Location Temp. Windchill Dew Point Humidity Wind Precip. Elev Updated Type